Neillsville, WI (54456)

6:23 AM CDT on September 02, 2015 (GMT -0500)
central wisconsin | | Change Station
CLOSE
Current Station
Personal Weather Station
Location: Pittsville, WI
Elevation: 945 ft
Nearby Weather Stations

Elev 945 ft 44.35 °N, 90.34 °W | Updated 16 seconds ago

Fog
Fog
69.8 °F
Feels Like 69.8 °F
N
0.0
Wind Variable Wind from SSW
Gusts 0.0 mph

Today
High -- | Low -- °F
--% Chance of Precip.
Yesterday
High -- | Low -- °F
Precip. -- in
6:25 AM 7:37 PM
Waning Gibbous, 81% visible
Pressure 29.97 in
Visibility 0.2 miles
Clouds
Dew Point 69 °F
Humidity 98%
Rainfall 0.00 in
Snow Depth Not available.
UV 0.0 out of 12
Pollen 10.20 out of 12
Air Quality Not available.
Flu Activity Not available.
METAR KMFI 021054Z AUTO 21005KT 1/4SM FG VV001 21/19 A2999 RMK AO2 SLP149 T02110194
Pressure 29.97 in
Visibility 0.2 miles
Clouds
Dew Point 69 °F
Humidity 98%
Rainfall 0.00 in
Snow Depth Not available.
UV 0.0 out of 12
Pollen 10.20 out of 12
Air Quality Not available.
Flu Activity Not available.
METAR KMFI 021054Z AUTO 21005KT 1/4SM FG VV001 21/19 A2999 RMK AO2 SLP149 T02110194

10-Day Weather Forecast

×

Almanac

Astronomy

Sep. 02, 2015 Rise Set
Actual Time
Civil Twilight
Nautical Twilight
Astronomical Twilight
Moon
Length of Visible Light
Length of Day
Tomorrow will be .
, % of the Moon is Illuminated

Today's Extremes

State Highs State Lows

Community

WunderPhotos

Upload Photos

1,851,736 photos uploaded!

WunderBlogs® & News

Nearby

Air Quality

  Air Quality AQ Index Pollutant
Not available.

Snow Depth

Station Depth Elevation

Earthquake Activity

City Distance Mag. Time & Date
Minimum magnitude displayed is 2.5.

Coastal Water Temperatures

Place Temperature

Stations

Nearby Weather Stations

Station Location Temp. Windchill Dew Point Humidity Wind Precip. Elev Updated Type